Time;durP1;ratioP1;P1;durP2;ratioP2;P2;SDS_P1;SDS_P2;PMS_P1;PMS_P2;Temp;Humidity;BMP_temperature;BMP_pressure;BME280_temperature;BME280_humidity;BME280_pressure;Samples;Min_cycle;Max_cycle;Signal;HPM_P1;HPM_P2
2023/05/31 00:00:27;;;;;;;10.20;9.90;;;14.70;99.90;;;;;;5007498;28;20276;-80
2023/05/31 00:02:55;;;;;;;10.00;9.70;;;14.80;99.90;;;;;;5004787;28;20241;-81
2023/05/31 00:05:25;;;;;;;10.07;9.77;;;14.70;99.90;;;;;;5004359;28;20256;-80
2023/05/31 00:07:55;;;;;;;10.20;9.90;;;14.60;99.90;;;;;;5006466;28;20257;-79
2023/05/31 00:10:23;;;;;;;10.20;9.90;;;14.70;99.90;;;;;;5016284;28;20236;-80
2023/05/31 00:12:51;;;;;;;10.00;9.70;;;14.60;99.90;;;;;;5011375;28;20288;-80
2023/05/31 00:15:18;;;;;;;10.10;9.80;;;14.60;99.90;;;;;;5019902;28;20252;-80
2023/05/31 00:17:45;;;;;;;10.02;9.73;;;14.60;99.90;;;;;;5010748;28;20259;-80
2023/05/31 00:20:15;;;;;;;9.80;9.50;;;14.60;99.90;;;;;;5006701;28;20312;-80
2023/05/31 00:22:43;;;;;;;9.93;9.63;;;14.60;99.90;;;;;;5006937;28;20264;-81
2023/05/31 00:25:12;;;;;;;9.77;9.48;;;14.60;99.90;;;;;;5005881;28;20244;-80
2023/05/31 00:27:40;;;;;;;9.93;9.63;;;14.60;99.90;;;;;;5005947;28;20292;-81
2023/05/31 00:30:12;;;;;;;10.10;9.80;;;14.50;99.90;;;;;;5004756;28;20280;-82
2023/05/31 00:32:40;;;;;;;9.90;9.60;;;14.30;99.90;;;;;;5004868;28;20233;-80
2023/05/31 00:35:10;;;;;;;10.15;9.85;;;14.30;99.90;;;;;;5007909;28;20304;-80
2023/05/31 00:37:42;;;;;;;10.00;9.70;;;14.20;99.90;;;;;;5005391;28;20328;-80
2023/05/31 00:40:12;;;;;;;10.30;10.00;;;14.20;99.90;;;;;;5004573;28;20219;-80
2023/05/31 00:42:40;;;;;;;10.20;9.90;;;14.20;99.90;;;;;;5020188;28;20254;-81
2023/05/31 00:45:08;;;;;;;10.07;9.77;;;14.10;99.90;;;;;;5011886;28;20294;-80
2023/05/31 00:47:37;;;;;;;10.13;9.82;;;14.00;99.90;;;;;;5005257;28;20308;-81
2023/05/31 00:50:07;;;;;;;10.10;9.80;;;14.00;99.90;;;;;;5005366;28;20233;-81
2023/05/31 00:52:38;;;;;;;10.10;9.80;;;13.90;99.90;;;;;;5004351;28;20249;-80
2023/05/31 00:55:07;;;;;;;9.93;9.63;;;13.90;99.90;;;;;;5004333;28;20240;-80
2023/05/31 00:57:37;;;;;;;10.00;9.70;;;13.80;99.90;;;;;;5007001;28;20235;-80
2023/05/31 01:00:07;;;;;;;10.17;9.87;;;13.80;99.90;;;;;;5004292;28;20284;-80
2023/05/31 01:02:37;;;;;;;10.05;9.75;;;13.70;99.90;;;;;;5004682;28;20240;-80
2023/05/31 01:05:07;;;;;;;10.00;9.70;;;13.70;99.90;;;;;;5003987;28;20244;-81
2023/05/31 01:07:35;;;;;;;10.50;10.20;;;13.60;99.90;;;;;;5003975;28;20328;-80
2023/05/31 01:10:04;;;;;;;10.00;9.70;;;13.60;99.90;;;;;;5003728;28;20233;-81
2023/05/31 01:12:49;;;;;;;10.10;9.80;;;13.50;99.90;;;;;;5004182;28;20229;-80
2023/05/31 01:15:25;;;;;;;10.00;9.70;;;13.50;99.90;;;;;;5003932;28;20299;-81
2023/05/31 01:18:09;;;;;;;9.87;9.57;;;13.40;99.90;;;;;;5003723;28;20235;-81
2023/05/31 01:20:41;;;;;;;9.80;9.50;;;13.40;99.90;;;;;;5004121;28;20231;-80
2023/05/31 01:23:39;;;;;;;9.90;9.60;;;13.40;99.90;;;;;;5006954;28;20236;-81
2023/05/31 01:26:45;;;;;;;10.03;9.73;;;13.40;99.90;;;;;;5004943;28;20271;-81
2023/05/31 01:29:19;;;;;;;10.00;9.70;;;13.40;99.90;;;;;;5006143;28;20276;-81
2023/05/31 01:31:49;;;;;;;10.07;9.77;;;13.40;99.90;;;;;;5003688;28;20236;-81
2023/05/31 01:34:18;;;;;;;9.90;9.60;;;13.40;99.90;;;;;;5003128;28;20237;-81
2023/05/31 01:36:45;;;;;;;10.00;9.70;;;13.30;99.90;;;;;;5019722;28;20239;-81
2023/05/31 01:39:14;;;;;;;9.90;9.60;;;13.30;99.90;;;;;;5014549;28;20228;-81
2023/05/31 01:41:48;;;;;;;9.73;9.43;;;13.30;99.90;;;;;;5023151;28;20255;-81
2023/05/31 01:44:20;;;;;;;9.87;9.57;;;13.30;99.90;;;;;;5023066;28;20237;-81
2023/05/31 01:46:51;;;;;;;10.10;9.80;;;13.20;99.90;;;;;;5023295;28;20300;-81
2023/05/31 01:49:19;;;;;;;10.30;10.00;;;13.20;99.90;;;;;;5023753;28;20232;-81
2023/05/31 01:51:49;;;;;;;9.90;9.60;;;13.10;99.90;;;;;;5023132;28;20323;-82
2023/05/31 01:54:18;;;;;;;10.10;9.80;;;13.10;99.90;;;;;;5029459;28;20232;-81
2023/05/31 01:56:49;;;;;;;9.70;9.40;;;13.00;99.90;;;;;;5031307;28;20236;-81
2023/05/31 01:59:18;;;;;;;9.57;9.27;;;13.00;99.90;;;;;;5029917;28;20226;-80
2023/05/31 02:01:47;;;;;;;9.87;9.57;;;13.00;99.90;;;;;;5026966;28;20232;-80
2023/05/31 02:04:18;;;;;;;9.80;9.50;;;13.00;99.90;;;;;;5014976;28;21121;-81
2023/05/31 02:06:46;;;;;;;9.47;9.17;;;13.00;99.90;;;;;;5007251;28;20235;-81
2023/05/31 02:09:14;;;;;;;9.53;9.23;;;13.00;99.90;;;;;;5006840;28;20236;-81
2023/05/31 02:11:42;;;;;;;9.60;9.30;;;12.90;99.90;;;;;;5006749;28;20229;-81
2023/05/31 02:14:13;;;;;;;9.87;9.57;;;12.90;99.90;;;;;;5006497;28;20255;-81
2023/05/31 02:16:41;;;;;;;10.20;9.90;;;12.80;99.90;;;;;;5007266;28;20275;-81
2023/05/31 02:19:14;;;;;;;9.87;9.57;;;12.80;99.90;;;;;;5006995;28;20417;-81
2023/05/31 02:21:42;;;;;;;9.50;9.20;;;12.80;99.90;;;;;;5006494;28;20253;-80
2023/05/31 02:24:12;;;;;;;9.70;9.40;;;12.70;99.90;;;;;;5005991;28;20236;-81
2023/05/31 02:26:40;;;;;;;9.33;9.03;;;12.60;99.90;;;;;;5008993;28;20268;-81
2023/05/31 02:29:09;;;;;;;9.53;9.23;;;12.60;99.90;;;;;;5006972;28;20268;-81
2023/05/31 02:31:40;;;;;;;9.50;9.20;;;12.60;99.90;;;;;;5006815;28;20244;-81
2023/05/31 02:34:10;;;;;;;9.40;9.10;;;12.50;99.90;;;;;;5008066;28;20228;-81
2023/05/31 02:36:38;;;;;;;9.60;9.30;;;12.50;99.90;;;;;;5005822;28;20244;-81
2023/05/31 02:39:06;;;;;;;9.23;8.93;;;12.50;99.90;;;;;;5006294;28;20314;-81
2023/05/31 02:41:33;;;;;;;9.43;9.13;;;12.50;99.90;;;;;;5006318;28;20284;-81
2023/05/31 02:44:01;;;;;;;9.30;9.00;;;12.40;99.90;;;;;;5006202;28;20267;-81
2023/05/31 02:46:29;;;;;;;9.40;9.10;;;12.40;99.90;;;;;;5006025;28;20320;-81
2023/05/31 02:48:59;;;;;;;10.40;10.10;;;12.40;99.90;;;;;;5006041;28;20292;-81
2023/05/31 02:51:27;;;;;;;10.23;9.93;;;12.30;99.90;;;;;;5013213;28;20217;-80
2023/05/31 02:53:56;;;;;;;10.50;10.20;;;12.30;99.90;;;;;;5005958;28;20236;-81
2023/05/31 02:56:24;;;;;;;10.30;10.00;;;12.20;99.90;;;;;;5006642;28;20240;-81
2023/05/31 02:58:56;;;;;;;9.97;9.67;;;12.20;99.90;;;;;;5013204;28;20255;-81
2023/05/31 03:01:25;;;;;;;10.60;10.30;;;12.10;99.90;;;;;;5014147;28;20754;-81
2023/05/31 03:03:55;;;;;;;10.23;9.93;;;12.10;99.90;;;;;;5007671;28;20316;-80
2023/05/31 03:06:29;;;;;;;10.73;10.43;;;12.00;99.90;;;;;;5006924;28;20255;-80
2023/05/31 03:08:56;;;;;;;10.57;10.27;;;11.90;99.90;;;;;;5007497;28;20288;-81
2023/05/31 03:11:25;;;;;;;10.47;10.17;;;11.80;99.90;;;;;;5007000;28;20221;-81
2023/05/31 03:13:52;;;;;;;10.60;10.30;;;11.80;99.90;;;;;;5006930;28;20244;-81
2023/05/31 03:16:23;;;;;;;10.63;10.33;;;11.60;99.90;;;;;;5006079;28;20275;-81
2023/05/31 03:18:52;;;;;;;10.60;10.30;;;11.50;99.90;;;;;;5005893;28;20232;-79
2023/05/31 03:21:20;;;;;;;10.80;10.50;;;11.60;99.90;;;;;;5006578;28;20240;-81
2023/05/31 03:23:51;;;;;;;10.57;10.27;;;11.50;99.90;;;;;;5006857;28;20332;-81
2023/05/31 03:26:20;;;;;;;10.43;10.13;;;11.50;99.90;;;;;;5019378;28;20311;-81
2023/05/31 03:28:49;;;;;;;10.43;10.13;;;11.60;99.90;;;;;;5023465;28;20263;-80
2023/05/31 03:31:18;;;;;;;10.33;10.03;;;11.50;99.90;;;;;;5029992;28;20290;-81
2023/05/31 03:33:48;;;;;;;10.47;10.17;;;11.40;99.90;;;;;;5025673;28;20238;-81
2023/05/31 03:36:16;;;;;;;10.60;10.30;;;11.40;99.90;;;;;;5025494;28;20232;-81
2023/05/31 03:38:46;;;;;;;10.40;10.10;;;11.30;99.90;;;;;;5025764;28;20235;-81
2023/05/31 03:41:17;;;;;;;10.10;9.80;;;11.30;99.90;;;;;;5025413;28;20242;-81
2023/05/31 03:43:46;;;;;;;10.00;9.70;;;11.30;99.90;;;;;;5025984;28;20291;-81
2023/05/31 03:46:15;;;;;;;10.40;10.10;;;11.40;99.90;;;;;;5025729;28;20370;-81
2023/05/31 03:48:45;;;;;;;10.07;9.77;;;11.40;99.90;;;;;;5027601;28;20240;-81
2023/05/31 03:51:13;;;;;;;10.17;9.87;;;11.40;99.90;;;;;;5024763;28;20243;-81
2023/05/31 03:53:42;;;;;;;10.30;10.00;;;11.40;99.90;;;;;;5024587;28;20240;-81
2023/05/31 03:56:10;;;;;;;10.47;10.17;;;11.40;99.90;;;;;;5025043;28;20339;-80
2023/05/31 03:58:40;;;;;;;10.20;9.90;;;11.40;99.90;;;;;;5024431;28;20412;-81
2023/05/31 04:01:10;;;;;;;10.47;10.17;;;11.40;99.90;;;;;;5024582;28;20216;-81
2023/05/31 04:03:39;;;;;;;10.17;9.87;;;11.50;99.90;;;;;;5024960;28;20232;-81
2023/05/31 04:06:08;;;;;;;10.70;10.40;;;11.40;99.90;;;;;;5024046;28;20247;-81
2023/05/31 04:08:36;;;;;;;10.83;10.53;;;11.50;99.90;;;;;;5024679;28;20371;-81
2023/05/31 04:11:04;;;;;;;10.73;10.43;;;11.50;99.90;;;;;;5025092;28;20235;-81
2023/05/31 04:13:32;;;;;;;10.80;10.50;;;11.60;99.90;;;;;;5026031;28;20263;-81
2023/05/31 04:16:12;;;;;;;10.53;10.23;;;11.70;99.90;;;;;;5025990;28;20299;-84
2023/05/31 04:18:40;;;;;;;10.83;10.53;;;11.80;99.90;;;;;;5026819;28;20259;-84
2023/05/31 04:21:09;;;;;;;10.93;10.63;;;11.80;99.90;;;;;;5025068;28;20240;-84
2023/05/31 04:23:39;;;;;;;10.80;10.50;;;11.90;99.90;;;;;;5025001;28;20263;-85
2023/05/31 04:26:08;;;;;;;10.60;10.30;;;12.00;99.90;;;;;;5025159;28;20881;-84
2023/05/31 04:28:39;;;;;;;10.80;10.50;;;12.10;99.90;;;;;;5024738;28;20319;-84
2023/05/31 04:31:10;;;;;;;11.40;11.00;;;12.10;99.90;;;;;;5024502;28;20228;-85
2023/05/31 04:33:38;;;;;;;11.07;10.77;;;12.20;99.90;;;;;;5024877;28;20268;-85
2023/05/31 04:36:08;;;;;;;11.33;10.93;;;12.30;99.90;;;;;;5024782;28;20263;-83
2023/05/31 04:38:35;;;;;;;10.97;10.67;;;12.40;99.90;;;;;;5024659;28;20228;-82
2023/05/31 04:41:04;;;;;;;11.17;10.83;;;12.50;99.90;;;;;;5024687;28;20267;-81
2023/05/31 04:43:32;;;;;;;11.53;11.13;;;12.60;99.90;;;;;;5017189;28;20224;-80
2023/05/31 04:46:01;;;;;;;11.27;10.87;;;12.70;99.90;;;;;;5027453;28;20247;-79
2023/05/31 04:48:31;;;;;;;11.23;10.87;;;12.90;99.90;;;;;;5028958;28;20751;-81
2023/05/31 04:51:00;;;;;;;11.40;11.00;;;13.00;99.90;;;;;;5026571;28;20224;-81
2023/05/31 04:53:28;;;;;;;11.40;11.00;;;13.10;99.90;;;;;;5025384;28;20239;-80
2023/05/31 04:55:55;;;;;;;11.37;10.97;;;13.20;99.90;;;;;;5024421;28;20270;-81
2023/05/31 04:58:22;;;;;;;11.97;11.57;;;13.30;99.90;;;;;;5015387;28;20323;-81
2023/05/31 05:00:51;;;;;;;11.75;11.35;;;13.40;99.90;;;;;;5005786;28;20229;-81
2023/05/31 05:03:20;;;;;;;11.60;11.20;;;13.50;99.90;;;;;;5004740;28;20233;-81
2023/05/31 07:19:04;;;;;;;11.50;11.10;;;19.10;99.90;;;;;;5027257;28;20232;-85
2023/05/31 07:21:42;;;;;;;11.35;10.95;;;19.20;99.90;;;;;;5029233;28;20238;-86
2023/05/31 07:24:12;;;;;;;11.35;10.95;;;19.30;99.90;;;;;;5025000;28;20228;-89
2023/05/31 07:26:58;;;;;;;11.35;10.95;;;19.40;99.90;;;;;;5023650;28;20243;-87
2023/05/31 07:29:28;;;;;;;11.40;11.00;;;19.50;99.90;;;;;;5022877;28;20331;-88
2023/05/31 07:34:53;;;;;;;11.43;11.02;;;19.60;99.90;;;;;;5023249;28;20247;-87
2023/05/31 07:49:05;;;;;;;10.85;10.55;;;19.90;99.90;;;;;;4793259;29;20278;-86
2023/05/31 07:52:38;;;;;;;10.80;10.50;;;19.90;99.90;;;;;;4793325;29;20331;-86
2023/05/31 07:55:14;;;;;;;10.75;10.45;;;19.90;99.90;;;;;;4794771;29;20260;-89
2023/05/31 07:57:44;;;;;;;10.95;10.65;;;20.00;99.90;;;;;;4837028;29;20243;-88
2023/05/31 08:00:14;;;;;;;11.20;10.90;;;20.20;99.90;;;;;;4961573;28;20267;-88
2023/05/31 08:02:42;;;;;;;11.45;11.05;;;20.30;99.90;;;;;;5007648;28;20229;-88
2023/05/31 08:05:12;;;;;;;11.30;10.90;;;20.50;99.90;;;;;;5024321;28;20268;-84
2023/05/31 08:07:42;;;;;;;11.05;10.75;;;20.60;99.90;;;;;;5024860;28;20311;-84
2023/05/31 08:10:20;;;;;;;11.63;11.23;;;20.70;99.90;;;;;;5023525;28;20266;-85
2023/05/31 08:12:53;;;;;;;11.27;10.88;;;20.80;99.90;;;;;;5023151;28;20235;-85
2023/05/31 08:15:21;;;;;;;11.13;10.73;;;20.80;99.90;;;;;;5023036;28;20239;-84
2023/05/31 08:17:51;;;;;;;11.30;10.90;;;21.00;99.90;;;;;;5022096;28;20264;-87
2023/05/31 08:20:20;;;;;;;11.07;10.70;;;21.00;99.90;;;;;;5021895;28;20295;-87
2023/05/31 08:22:50;;;;;;;11.40;11.00;;;21.10;99.90;;;;;;5022151;28;20228;-88
2023/05/31 08:25:30;;;;;;;11.48;11.07;;;21.20;99.90;;;;;;5022938;28;20280;-88
2023/05/31 08:27:58;;;;;;;11.13;10.73;;;21.30;99.90;;;;;;5040181;28;20243;-89
2023/05/31 08:30:26;;;;;;;11.60;11.20;;;21.30;99.90;;;;;;5041034;28;20255;-84
2023/05/31 08:32:57;;;;;;;11.60;11.20;;;21.40;99.90;;;;;;5021255;28;20225;-86
2023/05/31 08:35:25;;;;;;;11.45;11.05;;;21.50;99.90;;;;;;5038679;28;20295;-85
2023/05/31 08:37:55;;;;;;;11.70;11.30;;;21.50;99.90;;;;;;5028471;28;20254;-85
2023/05/31 08:40:32;;;;;;;11.73;11.32;;;21.70;99.90;;;;;;5030925;28;20232;-84
2023/05/31 08:43:05;;;;;;;11.68;11.27;;;21.90;99.90;;;;;;5032137;28;20281;-87
2023/05/31 08:45:41;;;;;;;12.00;11.60;;;22.10;99.90;;;;;;5038599;28;20247;-84
2023/05/31 08:48:20;;;;;;;11.65;11.25;;;22.00;99.90;;;;;;5022122;28;20224;-86
2023/05/31 08:50:53;;;;;;;11.88;11.48;;;21.90;99.90;;;;;;5022251;28;20232;-87
2023/05/31 08:56:23;;;;;;;11.50;11.10;;;22.20;99.90;;;;;;5019785;28;20296;-89
2023/05/31 08:58:52;;;;;;;11.48;11.07;;;22.40;99.90;;;;;;5020399;28;20232;-84
2023/05/31 09:01:21;;;;;;;11.50;11.10;;;22.60;99.90;;;;;;5020306;28;20224;-84
2023/05/31 09:03:52;;;;;;;11.60;11.20;;;22.70;99.90;;;;;;5020005;28;20231;-85
2023/05/31 09:06:20;;;;;;;11.57;11.18;;;22.70;99.90;;;;;;5020460;28;20294;-84
2023/05/31 09:08:50;;;;;;;11.93;11.52;;;23.00;99.90;;;;;;5021919;28;20236;-85
2023/05/31 09:11:28;;;;;;;12.05;11.65;;;23.30;99.90;;;;;;5021824;28;20220;-85
2023/05/31 09:13:56;;;;;;;11.90;11.50;;;23.50;99.90;;;;;;5022351;28;20239;-85
2023/05/31 09:16:27;;;;;;;11.82;11.43;;;23.50;99.90;;;;;;5022226;28;20239;-86
2023/05/31 09:19:04;;;;;;;11.40;11.00;;;23.60;99.90;;;;;;5022362;28;20264;-87
2023/05/31 09:21:42;;;;;;;11.65;11.25;;;23.80;99.90;;;;;;5026072;28;20232;-85
2023/05/31 09:24:12;;;;;;;11.85;11.45;;;24.00;99.90;;;;;;5028158;28;20227;-87
2023/05/31 09:26:50;;;;;;;11.52;11.13;;;24.00;99.90;;;;;;5038442;28;20212;-87
2023/05/31 09:29:22;;;;;;;11.48;11.07;;;24.00;99.90;;;;;;5038470;28;20247;-88
2023/05/31 09:31:52;;;;;;;11.55;11.15;;;23.80;99.90;;;;;;5026916;28;20228;-86
2023/05/31 09:34:29;;;;;;;11.45;11.05;;;23.90;99.90;;;;;;5024977;28;20232;-88
2023/05/31 09:36:59;;;;;;;11.48;11.07;;;24.10;99.90;;;;;;5030804;28;20240;-88
2023/05/31 09:39:27;;;;;;;11.80;11.40;;;24.20;99.90;;;;;;5024734;28;20247;-85
2023/05/31 09:42:06;;;;;;;11.65;11.25;;;24.30;99.90;;;;;;5022673;28;20263;-86
2023/05/31 09:44:34;;;;;;;11.90;11.50;;;24.40;99.90;;;;;;5022901;28;20228;-85
2023/05/31 09:47:14;;;;;;;11.80;11.40;;;24.70;99.90;;;;;;5021859;28;20267;-85
2023/05/31 09:49:45;;;;;;;12.00;11.60;;;24.80;99.90;;;;;;5022160;28;20245;-86
2023/05/31 09:52:21;;;;;;;11.73;11.32;;;24.90;99.90;;;;;;5021488;28;20296;-86
2023/05/31 09:54:50;;;;;;;11.80;11.40;;;25.20;99.90;;;;;;5025968;28;20207;-87
2023/05/31 09:57:49;;;;;;;11.98;11.57;;;25.60;99.90;;;;;;5022852;28;20226;-87
2023/05/31 10:00:26;;;;;;;11.90;11.50;;;25.50;99.90;;;;;;5001846;28;20244;-85
2023/05/31 10:02:58;;;;;;;11.77;11.38;;;25.50;99.90;;;;;;5002569;28;20232;-87
2023/05/31 10:05:31;;;;;;;11.80;11.40;;;25.60;99.90;;;;;;5000710;28;20240;-83
2023/05/31 10:08:01;;;;;;;11.57;11.18;;;25.50;99.90;;;;;;5004756;28;20324;-86
2023/05/31 10:10:30;;;;;;;11.90;11.50;;;25.50;99.90;;;;;;5020429;28;20215;-85
2023/05/31 10:13:19;;;;;;;11.70;11.30;;;25.40;99.90;;;;;;5019387;28;20221;-86
2023/05/31 10:15:50;;;;;;;11.52;11.13;;;25.30;99.90;;;;;;5007612;28;20240;-85
2023/05/31 10:18:21;;;;;;;11.60;11.20;;;25.30;99.90;;;;;;5004852;28;20264;-87
2023/05/31 10:20:56;;;;;;;11.38;10.98;;;25.50;99.90;;;;;;5005944;28;20231;-85
2023/05/31 10:23:25;;;;;;;11.50;11.10;;;25.60;99.90;;;;;;5005931;28;20315;-85
2023/05/31 10:26:07;;;;;;;11.48;11.07;;;25.80;99.90;;;;;;5004711;28;20321;-86
2023/05/31 10:31:38;;;;;;;11.20;10.82;;;25.80;99.90;;;;;;5001712;28;20244;-85
2023/05/31 10:34:17;;;;;;;11.45;11.05;;;25.60;99.90;;;;;;5005446;28;20307;-85
2023/05/31 10:36:54;;;;;;;11.60;11.20;;;25.40;99.90;;;;;;5004803;28;20232;-83
2023/05/31 10:39:32;;;;;;;11.50;11.10;;;25.30;99.90;;;;;;5004801;28;20237;-81
2023/05/31 10:42:10;;;;;;;11.75;11.35;;;25.00;99.90;;;;;;5004588;28;20294;-83
2023/05/31 10:44:49;;;;;;;11.60;11.20;;;24.90;99.90;;;;;;5017624;28;20247;-82
2023/05/31 10:47:27;;;;;;;11.57;11.18;;;25.10;99.90;;;;;;5017346;28;20217;-82
2023/05/31 10:49:57;;;;;;;11.18;10.88;;;25.10;99.90;;;;;;5017720;28;20240;-82
2023/05/31 10:52:25;;;;;;;11.45;11.05;;;25.50;99.90;;;;;;5013979;28;20272;-82
2023/05/31 10:55:22;;;;;;;11.50;11.10;;;25.80;99.90;;;;;;5007236;28;20240;-82
2023/05/31 10:58:00;;;;;;;11.45;11.05;;;26.30;99.90;;;;;;5022161;28;20228;-81
2023/05/31 11:00:41;;;;;;;11.65;11.25;;;26.30;99.90;;;;;;5024023;28;20299;-82
2023/05/31 11:03:08;;;;;;;11.63;11.23;;;26.50;99.90;;;;;;5024440;28;20319;-81
2023/05/31 11:05:47;;;;;;;11.32;10.93;;;26.90;99.90;;;;;;5061918;22;20289;-87
2023/05/31 11:08:16;;;;;;;11.48;11.07;;;27.00;99.90;;;;;;5063573;28;20215;-87
2023/05/31 11:14:00;;;;;;;11.70;11.30;;;27.10;99.90;;;;;;5049855;28;20246;-85
2023/05/31 11:17:13;;;;;;;11.50;11.10;;;27.30;99.90;;;;;;5047945;28;20235;-85
2023/05/31 11:25:25;;;;;;;10.90;10.60;;;27.20;99.90;;;;;;5044264;28;20223;-87
2023/05/31 11:30:49;;;;;;;10.20;9.90;;;27.20;99.90;;;;;;5047870;28;20230;-84
2023/05/31 11:36:09;;;;;;;10.30;10.00;;;28.00;99.90;;;;;;5045100;28;20275;-85
2023/05/31 11:38:42;;;;;;;9.95;9.65;;;28.50;99.90;;;;;;5051430;28;20243;-83
2023/05/31 11:41:13;;;;;;;10.20;9.90;;;28.90;99.20;;;;;;5049561;28;20322;-84
2023/05/31 11:43:52;;;;;;;9.80;9.50;;;29.00;99.90;;;;;;5049258;28;20314;-83
2023/05/31 11:46:21;;;;;;;10.10;9.80;;;28.80;99.30;;;;;;5046378;28;20235;-83
2023/05/31 11:48:53;;;;;;;10.10;9.80;;;28.80;98.00;;;;;;5046324;28;20219;-86
2023/05/31 11:51:22;;;;;;;10.13;9.82;;;28.60;97.40;;;;;;5040144;28;20236;-86
2023/05/31 11:53:52;;;;;;;9.70;9.40;;;28.20;96.10;;;;;;5035152;28;20227;-85
2023/05/31 11:56:32;;;;;;;10.32;10.02;;;27.70;99.00;;;;;;5045629;28;20235;-84
2023/05/31 11:59:10;;;;;;;10.13;9.82;;;27.70;99.90;;;;;;5045424;28;20227;-85
2023/05/31 12:01:42;;;;;;;10.20;9.90;;;28.00;98.40;;;;;;5046493;28;20238;-83
2023/05/31 12:04:13;;;;;;;10.07;9.77;;;28.40;97.40;;;;;;5046959;28;20242;-84
2023/05/31 12:06:42;;;;;;;10.00;9.70;;;28.70;99.30;;;;;;5045414;28;20236;-83
2023/05/31 12:09:13;;;;;;;9.90;9.60;;;28.70;97.40;;;;;;5047068;28;20311;-84
2023/05/31 12:11:41;;;;;;;9.80;9.50;;;28.70;97.80;;;;;;5059719;28;20231;-81
2023/05/31 12:14:13;;;;;;;9.95;9.65;;;28.80;99.10;;;;;;5060540;28;20204;-82
2023/05/31 12:16:44;;;;;;;9.88;9.57;;;29.00;98.30;;;;;;5054234;28;20251;-84
2023/05/31 12:19:31;;;;;;;9.95;9.65;;;29.40;96.70;;;;;;5047368;28;20216;-82
2023/05/31 12:24:50;;;;;;;9.80;9.50;;;30.00;96.60;;;;;;5046782;28;20233;-82
2023/05/31 12:27:24;;;;;;;10.20;9.90;;;30.30;97.00;;;;;;5046317;28;20234;-84
2023/05/31 12:29:57;;;;;;;9.90;9.60;;;30.40;98.00;;;;;;5045277;28;20239;-83
2023/05/31 12:32:27;;;;;;;9.90;9.60;;;30.60;95.80;;;;;;5045987;28;20314;-82
2023/05/31 12:35:05;;;;;;;10.10;9.80;;;30.50;96.60;;;;;;5047419;28;20231;-83
2023/05/31 12:37:38;;;;;;;10.30;10.00;;;31.00;97.90;;;;;;5021130;28;20231;-82
2023/05/31 12:40:11;;;;;;;10.00;9.70;;;31.10;98.20;;;;;;5034042;28;20283;-82
2023/05/31 12:42:41;;;;;;;9.90;9.60;;;30.90;95.90;;;;;;5026370;28;20243;-82
2023/05/31 12:45:15;;;;;;;10.07;9.77;;;30.90;95.80;;;;;;5032973;28;20243;-82
2023/05/31 12:47:44;;;;;;;10.00;9.70;;;30.50;96.60;;;;;;5035636;28;20286;-82
2023/05/31 12:50:17;;;;;;;9.90;9.60;;;30.10;97.10;;;;;;5029959;28;20254;-82
2023/05/31 12:53:06;;;;;;;9.80;9.50;;;30.30;97.00;;;;;;5033064;28;20294;-82
2023/05/31 12:55:35;;;;;;;9.95;9.65;;;30.60;95.30;;;;;;5024783;28;20243;-81
2023/05/31 12:58:03;;;;;;;9.90;9.60;;;30.80;92.80;;;;;;5045825;28;20239;-80
2023/05/31 13:00:31;;;;;;;10.10;9.80;;;31.00;93.90;;;;;;5047422;28;20259;-82
2023/05/31 13:02:59;;;;;;;9.90;9.60;;;30.80;92.10;;;;;;5044675;28;20228;-81
2023/05/31 13:05:31;;;;;;;10.18;9.88;;;30.50;92.40;;;;;;5041828;28;20240;-80
2023/05/31 13:07:59;;;;;;;10.40;10.10;;;30.10;93.50;;;;;;5039033;28;20236;-81
2023/05/31 13:10:28;;;;;;;10.40;10.10;;;30.40;93.30;;;;;;5044290;28;21062;-81
2023/05/31 13:12:57;;;;;;;10.40;10.10;;;30.70;92.80;;;;;;5048639;28;20736;-84
2023/05/31 13:15:27;;;;;;;10.60;10.30;;;31.00;92.30;;;;;;5047799;28;20227;-84
2023/05/31 13:17:59;;;;;;;10.73;10.43;;;30.80;92.50;;;;;;5045740;28;20255;-85
2023/05/31 13:20:32;;;;;;;10.90;10.60;;;30.40;91.40;;;;;;5044531;28;20227;-85
2023/05/31 13:23:06;;;;;;;10.65;10.35;;;29.90;94.30;;;;;;5044952;28;20243;-85
2023/05/31 13:25:36;;;;;;;10.60;10.30;;;29.70;92.70;;;;;;5046077;28;20231;-82
2023/05/31 13:28:04;;;;;;;10.90;10.60;;;29.60;91.30;;;;;;5053957;28;20224;-81
2023/05/31 13:30:33;;;;;;;11.02;10.73;;;29.40;92.70;;;;;;5044946;28;20244;-82
2023/05/31 13:33:02;;;;;;;10.77;10.48;;;29.30;91.30;;;;;;5035544;28;20243;-80
2023/05/31 13:35:32;;;;;;;10.70;10.40;;;29.20;90.10;;;;;;5025874;28;20240;-83
2023/05/31 13:38:02;;;;;;;10.75;10.45;;;29.40;91.60;;;;;;5025474;28;20275;-82
2023/05/31 13:40:30;;;;;;;10.57;10.27;;;29.60;90.30;;;;;;5026245;28;20237;-81
2023/05/31 13:42:59;;;;;;;10.63;10.32;;;29.50;90.60;;;;;;5027332;28;20224;-81
2023/05/31 13:45:28;;;;;;;10.73;10.43;;;29.40;91.60;;;;;;5032345;28;20267;-80
2023/05/31 13:47:56;;;;;;;10.90;10.60;;;29.80;90.40;;;;;;5045125;28;20212;-79
2023/05/31 13:50:30;;;;;;;10.90;10.60;;;30.30;90.80;;;;;;5043411;28;20236;-81
2023/05/31 13:53:00;;;;;;;10.88;10.57;;;30.60;91.00;;;;;;5032146;28;20216;-82
2023/05/31 13:55:27;;;;;;;10.85;10.55;;;30.50;90.70;;;;;;5044681;28;20239;-81
2023/05/31 13:57:57;;;;;;;11.00;10.70;;;30.80;90.10;;;;;;5030953;28;20228;-82
2023/05/31 14:00:26;;;;;;;10.80;10.50;;;30.90;91.30;;;;;;5026356;28;20220;-83
2023/05/31 14:02:56;;;;;;;11.00;10.70;;;30.80;90.00;;;;;;5025968;28;20224;-81
2023/05/31 14:05:25;;;;;;;11.05;10.75;;;30.90;87.90;;;;;;5026242;28;20243;-80
2023/05/31 14:07:57;;;;;;;10.98;10.68;;;31.30;90.90;;;;;;5035053;28;20224;-81
2023/05/31 14:10:27;;;;;;;11.18;10.88;;;31.60;91.20;;;;;;5040357;28;20250;-81
2023/05/31 14:12:55;;;;;;;11.32;11.02;;;32.00;89.80;;;;;;5029685;28;20442;-84
2023/05/31 14:15:26;;;;;;;11.07;10.77;;;32.10;89.80;;;;;;5038651;28;20267;-83
2023/05/31 14:17:57;;;;;;;11.00;10.70;;;32.40;89.50;;;;;;5039340;28;20220;-81
2023/05/31 14:20:25;;;;;;;11.15;10.85;;;32.60;90.10;;;;;;5038020;28;20232;-83
2023/05/31 14:22:53;;;;;;;11.27;10.98;;;32.50;86.80;;;;;;5048986;28;20264;-83
2023/05/31 14:25:22;;;;;;;10.73;10.43;;;32.50;86.00;;;;;;5043758;28;20240;-85
2023/05/31 14:30:56;;;;;;;10.52;10.23;;;32.20;84.30;;;;;;5014062;28;20229;-84
2023/05/31 14:33:27;;;;;;;10.57;10.27;;;31.30;82.70;;;;;;5029416;28;20231;-86
2023/05/31 14:35:55;;;;;;;10.50;10.20;;;30.70;84.60;;;;;;5027191;28;20240;-83
2023/05/31 14:38:27;;;;;;;10.88;10.57;;;30.40;85.80;;;;;;5035124;28;20232;-84
2023/05/31 14:40:55;;;;;;;10.80;10.50;;;30.80;88.00;;;;;;5030660;28;20224;-84
2023/05/31 14:43:35;;;;;;;10.60;10.30;;;31.10;87.30;;;;;;5014785;28;20232;-85
2023/05/31 14:46:09;;;;;;;10.60;10.30;;;31.30;85.10;;;;;;5034645;28;20231;-84
2023/05/31 14:48:48;;;;;;;10.50;10.20;;;31.60;88.40;;;;;;5022970;28;20243;-85
2023/05/31 14:51:16;;;;;;;10.50;10.20;;;32.00;86.70;;;;;;5030451;28;20288;-83
2023/05/31 14:53:48;;;;;;;10.65;10.35;;;32.10;87.80;;;;;;5022771;28;20224;-86
2023/05/31 14:56:17;;;;;;;10.57;10.27;;;32.10;84.40;;;;;;5035893;28;20330;-86
2023/05/31 14:58:49;;;;;;;11.02;10.73;;;31.70;86.60;;;;;;5024305;28;20749;-84
2023/05/31 15:04:04;;;;;;;10.65;10.35;;;31.50;86.90;;;;;;5043531;28;20228;-85
2023/05/31 15:06:32;;;;;;;10.68;10.38;;;31.30;86.20;;;;;;5029446;28;20287;-85
2023/05/31 15:09:02;;;;;;;10.55;10.25;;;31.20;88.50;;;;;;5035010;28;20235;-87
2023/05/31 15:11:34;;;;;;;10.40;10.10;;;31.40;85.80;;;;;;5034724;28;20302;-85
2023/05/31 15:14:09;;;;;;;10.40;10.10;;;31.70;89.20;;;;;;5036016;28;20231;-86
2023/05/31 15:16:40;;;;;;;10.35;10.05;;;31.70;85.80;;;;;;5033727;28;20247;-86
2023/05/31 15:19:09;;;;;;;10.40;10.10;;;31.60;87.40;;;;;;5031589;28;21048;-88
2023/05/31 15:21:38;;;;;;;11.02;10.73;;;31.20;85.20;;;;;;5045653;28;20239;-86
2023/05/31 15:24:07;;;;;;;10.82;10.52;;;31.10;87.10;;;;;;5036728;28;20221;-85
2023/05/31 15:26:37;;;;;;;10.93;10.63;;;31.00;85.10;;;;;;5027349;28;20236;-85
2023/05/31 15:29:11;;;;;;;10.70;10.40;;;30.70;88.50;;;;;;5032203;28;20238;-85
2023/05/31 15:31:46;;;;;;;10.85;10.55;;;30.80;89.80;;;;;;5036488;28;20242;-85
2023/05/31 15:34:17;;;;;;;10.63;10.32;;;31.10;87.90;;;;;;5028729;28;20243;-85
2023/05/31 15:36:44;;;;;;;10.68;10.38;;;31.30;86.00;;;;;;5027215;28;20236;-85
2023/05/31 15:39:21;;;;;;;11.00;10.70;;;31.30;85.40;;;;;;5027093;28;20259;-85
2023/05/31 15:41:50;;;;;;;10.75;10.45;;;31.30;84.50;;;;;;5027618;28;20239;-86
2023/05/31 15:44:23;;;;;;;10.55;10.25;;;31.40;85.60;;;;;;5022188;28;20342;-85
2023/05/31 15:46:57;;;;;;;11.00;10.70;;;31.50;82.10;;;;;;5037565;28;20240;-85
2023/05/31 15:49:36;;;;;;;10.70;10.40;;;31.60;82.00;;;;;;5032958;28;21032;-85
2023/05/31 15:52:08;;;;;;;10.63;10.32;;;31.50;83.40;;;;;;5029212;28;20254;-85